Time;durP1;ratioP1;P1;durP2;ratioP2;P2;SDS_P1;SDS_P2;PMS_P1;PMS_P2;Temp;Humidity;BMP_temperature;BMP_pressure;BME280_temperature;BME280_humidity;BME280_pressure;Samples;Min_cycle;Max_cycle;Signal;HPM_P1;HPM_P2
2021/09/14 00:00:26;;;;;;;4.30;1.25;;;;;;;;;;5028493;28;20046;-62
2021/09/14 00:02:53;;;;;;;4.77;1.33;;;;;;;;;;5022730;28;20137;-62
2021/09/14 00:05:19;;;;;;;5.78;2.00;;;;;;;;;;5023862;28;20052;-62
2021/09/14 00:07:46;;;;;;;5.90;1.30;;;;;;;;;;5024566;28;20073;-62
2021/09/14 00:10:12;;;;;;;2.43;1.17;;;;;;;;;;5025405;28;20125;-62
2021/09/14 00:12:40;;;;;;;3.35;1.10;;;;;;;;;;5029096;28;20148;-63
2021/09/14 00:15:06;;;;;;;2.83;1.42;;;;;;;;;;5028708;28;20141;-62
2021/09/14 00:17:34;;;;;;;4.80;1.35;;;;;;;;;;5026064;28;20581;-62
2021/09/14 00:20:00;;;;;;;2.92;1.20;;;;;;;;;;5024512;28;20442;-62
2021/09/14 00:22:27;;;;;;;3.22;1.40;;;;;;;;;;5016251;28;20805;-63
2021/09/14 00:24:53;;;;;;;2.42;1.60;;;;;;;;;;5017082;28;20597;-62
2021/09/14 00:27:20;;;;;;;2.90;1.40;;;;;;;;;;5023037;28;20049;-62
2021/09/14 00:29:46;;;;;;;1.92;1.25;;;;;;;;;;5023444;28;20188;-63
2021/09/14 00:32:13;;;;;;;2.85;1.10;;;;;;;;;;5028238;28;20084;-62
2021/09/14 00:34:39;;;;;;;5.05;1.30;;;;;;;;;;5027216;28;20124;-62
2021/09/14 00:37:06;;;;;;;1.63;1.00;;;;;;;;;;5023875;28;20402;-62
2021/09/14 00:39:33;;;;;;;2.63;1.40;;;;;;;;;;5025345;28;20148;-62
2021/09/14 00:41:59;;;;;;;4.95;1.17;;;;;;;;;;5025155;28;20133;-62
2021/09/14 00:44:26;;;;;;;2.75;1.25;;;;;;;;;;5025171;28;20085;-62
2021/09/14 00:46:52;;;;;;;3.35;1.17;;;;;;;;;;5027033;28;20144;-62
2021/09/14 00:49:19;;;;;;;3.05;1.20;;;;;;;;;;5015325;28;20053;-63
2021/09/14 00:51:45;;;;;;;2.30;1.10;;;;;;;;;;5020336;28;20054;-63
2021/09/14 00:54:16;;;;;;;2.38;1.30;;;;;;;;;;5022921;28;20045;-63
2021/09/14 00:56:42;;;;;;;1.42;1.20;;;;;;;;;;5014695;28;20161;-62
2021/09/14 00:59:10;;;;;;;2.28;1.70;;;;;;;;;;5024049;28;20521;-63
2021/09/14 01:01:36;;;;;;;3.38;1.33;;;;;;;;;;5021484;28;20052;-62
2021/09/14 01:04:03;;;;;;;2.63;1.15;;;;;;;;;;5019570;28;20057;-63
2021/09/14 01:06:30;;;;;;;3.13;1.50;;;;;;;;;;5023548;28;20045;-63
2021/09/14 01:09:00;;;;;;;4.85;1.60;;;;;;;;;;5021661;28;20461;-62
2021/09/14 01:11:29;;;;;;;3.80;1.00;;;;;;;;;;5025397;28;20499;-63
2021/09/14 01:14:06;;;;;;;1.40;1.10;;;;;;;;;;5026041;28;20137;-62
2021/09/14 01:16:34;;;;;;;2.88;1.10;;;;;;;;;;5018575;28;20072;-63
2021/09/14 01:19:01;;;;;;;1.83;1.20;;;;;;;;;;5025720;28;20135;-62
2021/09/14 01:21:28;;;;;;;6.00;1.43;;;;;;;;;;5025263;28;20565;-62
2021/09/14 01:23:55;;;;;;;1.52;1.08;;;;;;;;;;5026674;28;20069;-62
2021/09/14 01:26:22;;;;;;;1.37;1.10;;;;;;;;;;5009242;28;20103;-62
2021/09/14 01:28:49;;;;;;;1.17;1.00;;;;;;;;;;5023029;28;20297;-62
2021/09/14 01:31:16;;;;;;;3.50;1.30;;;;;;;;;;5020026;28;20757;-62
2021/09/14 01:33:46;;;;;;;1.73;0.80;;;;;;;;;;5020674;28;20042;-62
2021/09/14 01:36:13;;;;;;;3.17;1.17;;;;;;;;;;5020806;28;20748;-62
2021/09/14 01:38:40;;;;;;;2.67;1.35;;;;;;;;;;5021304;28;20050;-62
2021/09/14 01:41:06;;;;;;;2.75;1.08;;;;;;;;;;5020933;28;20085;-63
2021/09/14 01:43:35;;;;;;;5.10;1.20;;;;;;;;;;5026774;28;20125;-62
2021/09/14 01:46:03;;;;;;;2.05;1.33;;;;;;;;;;5024584;28;20465;-62
2021/09/14 01:48:30;;;;;;;3.00;1.33;;;;;;;;;;5019868;28;20128;-63
2021/09/14 01:50:57;;;;;;;1.63;1.17;;;;;;;;;;5020123;28;20133;-62
2021/09/14 01:53:25;;;;;;;2.30;1.52;;;;;;;;;;5025134;28;20125;-62
2021/09/14 01:55:52;;;;;;;3.60;1.40;;;;;;;;;;5020283;28;20124;-62
2021/09/14 01:58:19;;;;;;;4.68;1.40;;;;;;;;;;5016490;28;20146;-63
2021/09/14 02:00:57;;;;;;;1.60;1.23;;;;;;;;;;5020315;28;20485;-63
2021/09/14 02:03:37;;;;;;;4.30;1.52;;;;;;;;;;5025799;28;20081;-62
2021/09/14 02:42:07;;;;;;;2.25;1.25;;;;;;;;;;4967457;28;20082;-62
2021/09/14 03:00:47;;;;;;;2.45;1.27;;;;;;;;;;5018710;28;20141;-62
2021/09/14 03:03:14;;;;;;;3.35;1.40;;;;;;;;;;5024310;28;20187;-62
2021/09/14 03:05:40;;;;;;;2.67;1.23;;;;;;;;;;5024135;28;20318;-62
2021/09/14 03:08:06;;;;;;;5.00;1.10;;;;;;;;;;5028845;28;20535;-62
2021/09/14 03:10:33;;;;;;;6.53;1.70;;;;;;;;;;5025057;28;20042;-63
2021/09/14 03:13:00;;;;;;;7.20;1.65;;;;;;;;;;5022748;28;20092;-63
2021/09/14 03:15:26;;;;;;;2.30;1.70;;;;;;;;;;5023344;28;20077;-62
2021/09/14 03:17:53;;;;;;;2.80;1.35;;;;;;;;;;5020683;28;20096;-62
2021/09/14 03:20:19;;;;;;;7.78;1.50;;;;;;;;;;5024446;28;20480;-63
2021/09/14 03:22:47;;;;;;;;;;;;;;;;;;5026715;28;20140;-62
2021/09/14 03:25:13;;;;;;;5.57;1.50;;;;;;;;;;5024433;28;19986;-63
2021/09/14 03:27:40;;;;;;;6.70;1.15;;;;;;;;;;5029370;28;20045;-62
2021/09/14 03:30:07;;;;;;;3.40;1.07;;;;;;;;;;5027815;28;20077;-62
2021/09/14 03:32:36;;;;;;;4.47;1.57;;;;;;;;;;5023591;28;20053;-63
2021/09/14 03:35:03;;;;;;;2.97;0.90;;;;;;;;;;5008437;28;20133;-62
2021/09/14 03:37:30;;;;;;;2.40;1.30;;;;;;;;;;5025040;28;20137;-62
2021/09/14 03:39:56;;;;;;;2.38;1.10;;;;;;;;;;5006879;28;20537;-62
2021/09/14 03:42:23;;;;;;;4.35;1.20;;;;;;;;;;5020130;28;20132;-62
2021/09/14 03:44:50;;;;;;;2.00;1.13;;;;;;;;;;5022578;28;20124;-63
2021/09/14 03:47:16;;;;;;;1.52;1.05;;;;;;;;;;5019675;28;20739;-62
2021/09/14 03:49:42;;;;;;;3.60;1.10;;;;;;;;;;5020215;28;20126;-63
2021/09/14 03:52:09;;;;;;;2.17;1.20;;;;;;;;;;5021837;28;20172;-62
2021/09/14 03:54:35;;;;;;;2.25;1.10;;;;;;;;;;5023706;28;20081;-62
2021/09/14 03:57:02;;;;;;;3.60;0.90;;;;;;;;;;5025989;28;20076;-62
2021/09/14 03:59:29;;;;;;;5.10;1.08;;;;;;;;;;5022317;28;20049;-62
2021/09/14 04:01:59;;;;;;;1.85;1.20;;;;;;;;;;5022693;28;20157;-63
2021/09/14 04:07:10;;;;;;;5.47;1.20;;;;;;;;;;5024594;28;20132;-62
2021/09/14 04:09:37;;;;;;;3.40;1.23;;;;;;;;;;5024509;28;20057;-62
2021/09/14 04:12:04;;;;;;;4.05;1.40;;;;;;;;;;5021418;28;20085;-62
2021/09/14 04:14:32;;;;;;;3.60;1.23;;;;;;;;;;5022316;28;20136;-62
2021/09/14 04:16:58;;;;;;;3.33;1.48;;;;;;;;;;5022923;28;20081;-62
2021/09/14 04:19:26;;;;;;;3.22;1.55;;;;;;;;;;5021658;28;20084;-63
2021/09/14 04:21:52;;;;;;;1.83;1.15;;;;;;;;;;5025241;28;20077;-62
2021/09/14 04:24:19;;;;;;;1.45;1.05;;;;;;;;;;5020236;28;20129;-62
2021/09/14 04:26:46;;;;;;;3.50;1.10;;;;;;;;;;5016262;28;20073;-62
2021/09/14 04:29:12;;;;;;;6.93;1.15;;;;;;;;;;5019666;28;20085;-62
2021/09/14 04:31:39;;;;;;;1.65;1.10;;;;;;;;;;5028798;28;20155;-62
2021/09/14 04:34:05;;;;;;;5.13;1.20;;;;;;;;;;5019347;28;20148;-62
2021/09/14 04:36:32;;;;;;;4.03;1.00;;;;;;;;;;5024285;28;20453;-62
2021/09/14 04:38:58;;;;;;;4.90;1.40;;;;;;;;;;5020217;28;20519;-62
2021/09/14 04:41:25;;;;;;;1.88;1.30;;;;;;;;;;5025246;28;20120;-62
2021/09/14 04:43:51;;;;;;;4.53;1.38;;;;;;;;;;5021085;28;20528;-62
2021/09/14 04:46:18;;;;;;;7.15;1.45;;;;;;;;;;5022920;28;20137;-62
2021/09/14 04:48:44;;;;;;;1.65;1.23;;;;;;;;;;5026596;28;20080;-62
2021/09/14 04:51:11;;;;;;;3.35;1.40;;;;;;;;;;5024407;28;20128;-62
2021/09/14 04:53:37;;;;;;;6.07;1.40;;;;;;;;;;5024100;28;20128;-62
2021/09/14 04:56:04;;;;;;;5.80;1.10;;;;;;;;;;5024440;28;20088;-63
2021/09/14 04:58:33;;;;;;;2.72;1.10;;;;;;;;;;5021813;28;20056;-62
2021/09/14 05:00:59;;;;;;;4.40;1.55;;;;;;;;;;5022484;28;20136;-62
2021/09/14 05:03:27;;;;;;;3.72;1.15;;;;;;;;;;5024668;28;20045;-62
2021/09/14 05:05:55;;;;;;;;;;;;;;;;;;5024312;28;20088;-62
2021/09/14 05:08:22;;;;;;;5.60;1.27;;;;;;;;;;5027066;28;19936;-62
2021/09/14 05:10:49;;;;;;;1.00;0.90;;;;;;;;;;5024215;28;20077;-62
2021/09/14 05:13:15;;;;;;;5.68;1.45;;;;;;;;;;5017996;28;20132;-62
2021/09/14 05:15:42;;;;;;;2.08;1.10;;;;;;;;;;5018822;28;20084;-62
2021/09/14 05:18:12;;;;;;;2.65;1.10;;;;;;;;;;5022705;28;20601;-62
2021/09/14 05:20:40;;;;;;;5.50;1.27;;;;;;;;;;5019463;28;20129;-62
2021/09/14 05:23:16;;;;;;;;;;;;;;;;;;5027717;28;20057;-63
2021/09/14 05:25:44;;;;;;;7.80;1.50;;;;;;;;;;5022742;28;19953;-62
2021/09/14 05:28:14;;;;;;;4.68;1.02;;;;;;;;;;5019315;28;20046;-62
2021/09/14 05:30:42;;;;;;;2.42;1.35;;;;;;;;;;5025769;28;20054;-62
2021/09/14 05:33:08;;;;;;;4.68;1.20;;;;;;;;;;5022022;28;20575;-62
2021/09/14 05:35:38;;;;;;;5.80;1.00;;;;;;;;;;5020506;28;20076;-62
2021/09/14 05:38:04;;;;;;;4.47;1.20;;;;;;;;;;5017983;28;20505;-62
2021/09/14 05:40:32;;;;;;;6.20;1.10;;;;;;;;;;5018896;28;20194;-62
2021/09/14 05:42:58;;;;;;;3.63;1.50;;;;;;;;;;5017992;28;20080;-62
2021/09/14 05:45:24;;;;;;;1.30;1.00;;;;;;;;;;5022429;28;20137;-62
2021/09/14 05:47:51;;;;;;;2.97;1.30;;;;;;;;;;5023727;28;20587;-62
2021/09/14 05:50:18;;;;;;;2.55;1.08;;;;;;;;;;5015562;28;20772;-62
2021/09/14 05:52:44;;;;;;;1.75;1.25;;;;;;;;;;5020414;28;20181;-62
2021/09/14 05:55:11;;;;;;;3.95;1.30;;;;;;;;;;5025898;28;20137;-62
2021/09/14 05:57:38;;;;;;;5.85;1.60;;;;;;;;;;5018624;28;20077;-62
2021/09/14 06:00:04;;;;;;;3.58;1.08;;;;;;;;;;5021038;28;20528;-62
2021/09/14 06:02:31;;;;;;;4.20;1.40;;;;;;;;;;5022282;28;20137;-62
2021/09/14 06:04:58;;;;;;;1.25;0.93;;;;;;;;;;5022254;28;20090;-62
2021/09/14 06:07:24;;;;;;;4.30;1.17;;;;;;;;;;5018745;28;20121;-62
2021/09/14 06:09:53;;;;;;;2.15;1.20;;;;;;;;;;5019769;28;20599;-62
2021/09/14 06:12:19;;;;;;;4.55;1.27;;;;;;;;;;5017791;28;20071;-62
2021/09/14 06:14:45;;;;;;;5.55;1.33;;;;;;;;;;5025552;28;20500;-64
2021/09/14 06:17:12;;;;;;;6.65;1.45;;;;;;;;;;5021129;28;20132;-64
2021/09/14 06:19:38;;;;;;;5.10;1.30;;;;;;;;;;5024450;28;20145;-64
2021/09/14 06:22:05;;;;;;;5.53;1.08;;;;;;;;;;5022742;28;20133;-64
2021/09/14 06:24:32;;;;;;;5.47;1.48;;;;;;;;;;5025641;28;20045;-64
2021/09/14 06:26:59;;;;;;;2.50;1.20;;;;;;;;;;5028414;28;20085;-64
2021/09/14 06:29:25;;;;;;;2.80;1.25;;;;;;;;;;5022504;28;20051;-64
2021/09/14 06:31:52;;;;;;;6.60;1.52;;;;;;;;;;5027416;28;20124;-64
2021/09/14 06:34:18;;;;;;;3.97;1.30;;;;;;;;;;5023180;28;20077;-64
2021/09/14 06:36:44;;;;;;;3.55;1.50;;;;;;;;;;5028874;28;20084;-64
2021/09/14 06:39:11;;;;;;;2.23;1.47;;;;;;;;;;5023145;28;20040;-64
2021/09/14 06:41:38;;;;;;;4.15;1.40;;;;;;;;;;5026851;28;20141;-64
2021/09/14 06:44:04;;;;;;;3.10;1.60;;;;;;;;;;5026122;28;20076;-64
2021/09/14 06:46:31;;;;;;;;;;;;;;;;;;5027255;28;20076;-64
2021/09/14 06:48:58;;;;;;;2.17;1.55;;;;;;;;;;5022016;28;20008;-64
2021/09/14 06:51:24;;;;;;;5.47;1.23;;;;;;;;;;5024437;28;20144;-62
2021/09/14 06:53:51;;;;;;;7.00;1.27;;;;;;;;;;5019788;28;20069;-62
2021/09/14 06:56:18;;;;;;;1.38;1.20;;;;;;;;;;5026380;28;20330;-62
2021/09/14 06:58:46;;;;;;;4.13;1.73;;;;;;;;;;5027592;28;20136;-64
2021/09/14 07:01:19;;;;;;;2.63;1.42;;;;;;;;;;5016003;28;20076;-65
2021/09/14 07:03:46;;;;;;;1.70;1.48;;;;;;;;;;5022494;28;20080;-64
2021/09/14 07:06:13;;;;;;;1.50;1.40;;;;;;;;;;5022974;28;20125;-64
2021/09/14 07:08:40;;;;;;;3.33;1.48;;;;;;;;;;5027010;28;20073;-64
2021/09/14 07:11:06;;;;;;;5.40;1.63;;;;;;;;;;5024555;28;20133;-64
2021/09/14 07:13:33;;;;;;;2.50;1.60;;;;;;;;;;5026949;28;20085;-64
2021/09/14 07:16:00;;;;;;;6.40;1.55;;;;;;;;;;5026618;28;20071;-62
2021/09/14 07:18:27;;;;;;;4.25;1.50;;;;;;;;;;5028017;28;20100;-62
2021/09/14 07:20:54;;;;;;;3.83;1.60;;;;;;;;;;5023484;28;20135;-62
2021/09/14 07:23:21;;;;;;;4.65;2.10;;;;;;;;;;5023714;28;20128;-62
2021/09/14 07:25:47;;;;;;;2.80;1.70;;;;;;;;;;5028763;28;20137;-62
2021/09/14 07:28:14;;;;;;;2.50;1.70;;;;;;;;;;5023221;28;20528;-62
2021/09/14 07:30:42;;;;;;;4.25;1.90;;;;;;;;;;5025200;28;20376;-62
2021/09/14 07:33:09;;;;;;;4.18;1.83;;;;;;;;;;5028108;28;20056;-62
2021/09/14 07:35:36;;;;;;;3.53;1.52;;;;;;;;;;5023340;28;20050;-62
2021/09/14 07:38:02;;;;;;;4.20;1.70;;;;;;;;;;5023192;28;20065;-62
2021/09/14 07:40:29;;;;;;;3.92;1.70;;;;;;;;;;5026293;28;20562;-62
2021/09/14 07:42:57;;;;;;;3.03;2.00;;;;;;;;;;5025698;28;20073;-61
2021/09/14 07:45:23;;;;;;;2.72;1.75;;;;;;;;;;5032014;28;20069;-62
2021/09/14 07:47:50;;;;;;;3.78;2.17;;;;;;;;;;5018596;28;20137;-62
2021/09/14 07:50:17;;;;;;;3.85;1.90;;;;;;;;;;5027647;28;20144;-62
2021/09/14 07:52:43;;;;;;;6.28;2.00;;;;;;;;;;5027705;28;20045;-62
2021/09/14 07:55:10;;;;;;;3.08;1.85;;;;;;;;;;5028940;28;20050;-62
2021/09/14 07:57:37;;;;;;;2.55;2.05;;;;;;;;;;5016638;28;20077;-62
2021/09/14 08:00:04;;;;;;;2.83;1.80;;;;;;;;;;5024170;28;20049;-62
2021/09/14 08:02:30;;;;;;;2.90;1.90;;;;;;;;;;5025480;28;20136;-62
2021/09/14 08:04:57;;;;;;;2.42;1.60;;;;;;;;;;5022989;28;20164;-62
2021/09/14 08:07:23;;;;;;;3.20;1.73;;;;;;;;;;5021339;28;20140;-62
2021/09/14 08:09:50;;;;;;;2.07;1.60;;;;;;;;;;5018953;28;20104;-62
2021/09/14 08:12:16;;;;;;;2.28;1.70;;;;;;;;;;5034726;28;20045;-62
2021/09/14 08:14:43;;;;;;;4.53;1.73;;;;;;;;;;5020587;28;20081;-62
2021/09/14 08:17:12;;;;;;;5.47;1.67;;;;;;;;;;5018569;28;20132;-62
2021/09/14 08:19:41;;;;;;;2.85;1.70;;;;;;;;;;5023005;28;20058;-62
2021/09/14 08:22:11;;;;;;;2.83;1.80;;;;;;;;;;5025342;28;20140;-62
2021/09/14 08:24:38;;;;;;;2.03;1.70;;;;;;;;;;5020982;28;20144;-62
2021/09/14 08:27:05;;;;;;;2.78;1.52;;;;;;;;;;5028582;28;20132;-62
2021/09/14 08:29:31;;;;;;;4.85;1.33;;;;;;;;;;5023586;28;20132;-62
2021/09/14 08:31:58;;;;;;;1.65;1.25;;;;;;;;;;5028031;28;20045;-62
2021/09/14 08:34:25;;;;;;;3.22;1.70;;;;;;;;;;5023425;28;20581;-62
2021/09/14 08:36:52;;;;;;;3.47;1.58;;;;;;;;;;5025794;28;20052;-62
2021/09/14 08:39:18;;;;;;;2.58;1.52;;;;;;;;;;5024873;28;20140;-62
2021/09/14 08:41:45;;;;;;;3.42;1.73;;;;;;;;;;5021341;28;20077;-62
2021/09/14 08:44:11;;;;;;;3.17;1.73;;;;;;;;;;5026943;28;20087;-62
2021/09/14 08:46:38;;;;;;;2.33;1.55;;;;;;;;;;5024493;28;20421;-62
2021/09/14 08:49:06;;;;;;;;;;;;;;;;;;5014254;28;20128;-62
2021/09/14 08:51:32;;;;;;;4.38;1.80;;;;;;;;;;5023225;28;19940;-62
2021/09/14 08:53:59;;;;;;;2.40;1.70;;;;;;;;;;5025615;28;20138;-62
2021/09/14 08:56:26;;;;;;;2.75;1.70;;;;;;;;;;5022984;28;20132;-62
2021/09/14 08:58:56;;;;;;;2.60;1.55;;;;;;;;;;5020631;28;20085;-62
2021/09/14 09:01:23;;;;;;;2.55;1.65;;;;;;;;;;5024278;28;20069;-62
2021/09/14 09:04:00;;;;;;;2.90;1.30;;;;;;;;;;5020450;28;20241;-62
2021/09/14 09:06:44;;;;;;;3.75;1.80;;;;;;;;;;5021788;28;20085;-61
2021/09/14 09:09:13;;;;;;;4.53;2.10;;;;;;;;;;5016690;28;20084;-62
2021/09/14 09:11:51;;;;;;;2.35;1.65;;;;;;;;;;5024103;28;20053;-62
2021/09/14 09:14:17;;;;;;;4.80;1.55;;;;;;;;;;5020559;28;20084;-62
2021/09/14 09:16:44;;;;;;;6.57;1.85;;;;;;;;;;5025697;28;20085;-62
2021/09/14 09:19:10;;;;;;;3.90;1.90;;;;;;;;;;5026468;28;20140;-62
2021/09/14 09:21:38;;;;;;;2.78;1.70;;;;;;;;;;5023787;28;20045;-62
2021/09/14 09:24:04;;;;;;;;;;;;;;;;;;5021943;28;20501;-62
2021/09/14 09:26:31;;;;;;;4.63;2.15;;;;;;;;;;5025320;28;19957;-62
2021/09/14 09:28:59;;;;;;;6.10;1.88;;;;;;;;;;5024246;28;20472;-62
2021/09/14 09:31:25;;;;;;;3.85;1.90;;;;;;;;;;5019969;28;20128;-62
2021/09/14 09:34:01;;;;;;;5.45;2.05;;;;;;;;;;5023075;28;20592;-62
2021/09/14 09:36:30;;;;;;;6.63;1.83;;;;;;;;;;5020286;28;20054;-62
2021/09/14 09:39:00;;;;;;;6.28;1.70;;;;;;;;;;5020191;28;20171;-62
2021/09/14 09:41:26;;;;;;;5.57;1.88;;;;;;;;;;5022948;28;20144;-62
2021/09/14 09:44:03;;;;;;;7.20;1.90;;;;;;;;;;5025627;28;20080;-62
2021/09/14 09:46:30;;;;;;;2.90;1.88;;;;;;;;;;5020119;28;20335;-62
2021/09/14 09:48:56;;;;;;;8.02;2.20;;;;;;;;;;5022440;28;20068;-62
2021/09/14 09:51:23;;;;;;;4.20;2.03;;;;;;;;;;5025006;28;20069;-62
2021/09/14 09:53:50;;;;;;;7.15;1.92;;;;;;;;;;5020828;28;20601;-62
2021/09/14 09:56:17;;;;;;;7.32;1.90;;;;;;;;;;5020762;28;20100;-63
2021/09/14 09:58:46;;;;;;;6.03;1.80;;;;;;;;;;5019277;28;20137;-62
2021/09/14 10:01:13;;;;;;;4.80;1.77;;;;;;;;;;5016513;28;20464;-62
2021/09/14 10:03:47;;;;;;;5.68;1.95;;;;;;;;;;5014662;28;20080;-62
2021/09/14 10:06:15;;;;;;;7.25;1.92;;;;;;;;;;5019020;28;20131;-62
2021/09/14 10:08:48;;;;;;;10.02;1.95;;;;;;;;;;5018967;28;20137;-62
2021/09/14 10:11:22;;;;;;;4.30;2.13;;;;;;;;;;5025142;28;20073;-62
2021/09/14 10:13:50;;;;;;;4.07;1.88;;;;;;;;;;5027775;28;20140;-62
2021/09/14 10:16:23;;;;;;;6.68;2.05;;;;;;;;;;5027795;28;20140;-62
2021/09/14 10:18:50;;;;;;;5.25;1.92;;;;;;;;;;5024693;28;22814;-62
2021/09/14 10:21:19;;;;;;;8.43;2.35;;;;;;;;;;5026299;28;20096;-62
2021/09/14 10:23:53;;;;;;;5.35;2.10;;;;;;;;;;5030770;28;20077;-62
2021/09/14 10:26:30;;;;;;;7.47;2.10;;;;;;;;;;5023885;28;20081;-62
2021/09/14 10:28:57;;;;;;;4.85;2.08;;;;;;;;;;5029701;28;20064;-62
2021/09/14 10:31:25;;;;;;;6.47;2.17;;;;;;;;;;5026894;28;20153;-62
2021/09/14 10:34:04;;;;;;;6.32;1.88;;;;;;;;;;5026150;28;20124;-62
2021/09/14 10:36:31;;;;;;;8.65;2.40;;;;;;;;;;5023610;28;20085;-62
2021/09/14 10:38:58;;;;;;;3.28;1.67;;;;;;;;;;5029898;28;20638;-62
2021/09/14 10:41:34;;;;;;;5.43;2.03;;;;;;;;;;5023795;28;20157;-62
2021/09/14 10:44:03;;;;;;;5.43;1.67;;;;;;;;;;5021627;28;20136;-62
2021/09/14 10:46:31;;;;;;;3.70;1.70;;;;;;;;;;5024118;28;20084;-62
2021/09/14 10:49:00;;;;;;;7.25;2.28;;;;;;;;;;5031585;28;20127;-62
2021/09/14 10:51:27;;;;;;;5.28;2.13;;;;;;;;;;5026554;28;20060;-62
2021/09/14 10:53:59;;;;;;;4.32;2.05;;;;;;;;;;5022127;28;20141;-62
2021/09/14 10:56:27;;;;;;;5.18;1.90;;;;;;;;;;5024880;28;20115;-62
2021/09/14 10:58:57;;;;;;;6.80;2.05;;;;;;;;;;5025107;28;20076;-62
2021/09/14 11:01:25;;;;;;;4.38;1.88;;;;;;;;;;5023071;28;20129;-62
2021/09/14 11:04:03;;;;;;;4.65;1.95;;;;;;;;;;5025722;28;20141;-62
2021/09/14 11:06:30;;;;;;;9.50;2.20;;;;;;;;;;5023961;28;20556;-62
2021/09/14 11:09:01;;;;;;;4.97;2.00;;;;;;;;;;5023318;28;20656;-62
2021/09/14 11:11:27;;;;;;;7.53;2.17;;;;;;;;;;5023965;28;20087;-62
2021/09/14 11:13:54;;;;;;;9.43;2.30;;;;;;;;;;5027148;28;20046;-63
2021/09/14 11:16:21;;;;;;;5.07;1.87;;;;;;;;;;5029091;28;20452;-62
2021/09/14 11:18:48;;;;;;;6.22;2.15;;;;;;;;;;5023637;28;20461;-62
2021/09/14 11:21:15;;;;;;;4.63;1.88;;;;;;;;;;5023690;28;20085;-62
2021/09/14 11:23:43;;;;;;;6.60;1.95;;;;;;;;;;5022827;28;20132;-62
2021/09/14 11:26:10;;;;;;;8.10;1.90;;;;;;;;;;5025263;28;20154;-63
2021/09/14 11:28:37;;;;;;;;;;;;;;;;;;5029645;28;20145;-62
2021/09/14 11:31:05;;;;;;;4.05;1.83;;;;;;;;;;5025827;28;19971;-62
2021/09/14 11:33:32;;;;;;;5.07;1.98;;;;;;;;;;5027782;28;20057;-62
2021/09/14 11:35:59;;;;;;;5.82;2.05;;;;;;;;;;5026738;28;20055;-62
2021/09/14 11:38:26;;;;;;;6.60;2.22;;;;;;;;;;5028992;28;20145;-62
2021/09/14 11:40:54;;;;;;;3.17;1.83;;;;;;;;;;5025106;28;20470;-62
2021/09/14 11:43:21;;;;;;;9.30;2.45;;;;;;;;;;5025990;28;20069;-62
2021/09/14 11:45:48;;;;;;;;;;;;;;;;;;5022779;28;20076;-62
2021/09/14 11:48:19;;;;;;;5.88;1.90;;;;;;;;;;5024443;28;20024;-62
2021/09/14 11:50:48;;;;;;;7.45;2.20;;;;;;;;;;5026405;28;20085;-62
2021/09/14 11:53:18;;;;;;;5.88;2.08;;;;;;;;;;5021498;28;20074;-62
2021/09/14 11:55:46;;;;;;;3.35;1.83;;;;;;;;;;5021884;28;20123;-62
2021/09/14 11:58:15;;;;;;;8.23;2.13;;;;;;;;;;5022516;28;20132;-62
2021/09/14 12:00:45;;;;;;;3.85;1.95;;;;;;;;;;5022003;28;20137;-62
2021/09/14 12:03:17;;;;;;;5.28;1.90;;;;;;;;;;5024379;28;20073;-62
2021/09/14 12:06:04;;;;;;;17.13;2.90;;;;;;;;;;5031300;28;20918;-62
2021/09/14 12:08:31;;;;;;;6.80;2.10;;;;;;;;;;5022383;28;20156;-62
2021/09/14 12:10:58;;;;;;;;;;;;;;;;;;5024505;28;20073;-62
2021/09/14 12:13:24;;;;;;;4.50;2.10;;;;;;;;;;5024283;28;20321;-63
2021/09/14 12:15:57;;;;;;;6.40;2.40;;;;;;;;;;5019130;28;20088;-62
2021/09/14 12:18:24;;;;;;;7.25;2.20;;;;;;;;;;5022501;28;20050;-62
2021/09/14 12:20:50;;;;;;;4.30;2.13;;;;;;;;;;5026955;28;20081;-62
2021/09/14 12:23:17;;;;;;;5.33;2.07;;;;;;;;;;5021747;28;20172;-62
2021/09/14 12:25:44;;;;;;;6.85;2.35;;;;;;;;;;5026109;28;20132;-62
2021/09/14 12:28:11;;;;;;;8.35;2.15;;;;;;;;;;5024788;28;20137;-62
2021/09/14 12:30:37;;;;;;;6.13;2.08;;;;;;;;;;5024130;28;20144;-62
2021/09/14 12:33:04;;;;;;;4.60;1.80;;;;;;;;;;5021817;28;20136;-62
2021/09/14 12:35:30;;;;;;;6.07;1.92;;;;;;;;;;5022445;28;20847;-62
2021/09/14 12:37:57;;;;;;;6.97;1.90;;;;;;;;;;5027226;28;20140;-62
2021/09/14 12:40:23;;;;;;;5.40;2.10;;;;;;;;;;5020335;28;20405;-63
2021/09/14 12:42:50;;;;;;;6.60;2.22;;;;;;;;;;5024848;28;20077;-62
2021/09/14 12:45:17;;;;;;;5.60;2.30;;;;;;;;;;5029758;28;20705;-62
2021/09/14 12:47:44;;;;;;;3.42;1.98;;;;;;;;;;5021151;28;20081;-62
2021/09/14 12:50:10;;;;;;;7.65;2.00;;;;;;;;;;5019642;28;20128;-62
2021/09/14 12:52:37;;;;;;;4.47;1.70;;;;;;;;;;5020500;28;20073;-62
2021/09/14 12:55:07;;;;;;;4.38;1.88;;;;;;;;;;5024819;28;20071;-62
2021/09/14 12:57:34;;;;;;;5.35;1.77;;;;;;;;;;5025543;28;20046;-62
2021/09/14 13:00:00;;;;;;;4.93;1.70;;;;;;;;;;5022148;28;20052;-62
2021/09/14 13:02:27;;;;;;;5.65;2.03;;;;;;;;;;5022166;28;20144;-62
2021/09/14 13:04:54;;;;;;;7.45;1.92;;;;;;;;;;5025735;28;20049;-62
2021/09/14 13:07:21;;;;;;;7.17;2.13;;;;;;;;;;5023675;28;20069;-62
2021/09/14 13:09:48;;;;;;;7.78;2.45;;;;;;;;;;5025686;28;20310;-63
2021/09/14 13:12:20;;;;;;;6.07;1.73;;;;;;;;;;5024565;28;20142;-62
2021/09/14 13:17:33;;;;;;;4.30;1.80;;;;;;;;;;5019707;28;20482;-63
2021/09/14 13:19:59;;;;;;;5.20;2.20;;;;;;;;;;5024222;28;20137;-62
2021/09/14 13:22:26;;;;;;;6.72;1.90;;;;;;;;;;5018366;28;20508;-62
2021/09/14 13:24:53;;;;;;;6.43;2.10;;;;;;;;;;5021850;28;20052;-62
2021/09/14 13:27:20;;;;;;;6.63;1.95;;;;;;;;;;5022180;28;20168;-62
2021/09/14 13:29:46;;;;;;;4.47;2.17;;;;;;;;;;5027078;28;20073;-62
2021/09/14 13:32:13;;;;;;;6.25;2.45;;;;;;;;;;5028387;28;20092;-63
2021/09/14 13:34:40;;;;;;;5.38;2.13;;;;;;;;;;5022194;28;20140;-62
2021/09/14 13:37:06;;;;;;;7.82;2.17;;;;;;;;;;5021133;28;20146;-62
2021/09/14 13:39:33;;;;;;;9.63;2.28;;;;;;;;;;5025623;28;20119;-62
2021/09/14 13:42:00;;;;;;;6.53;2.38;;;;;;;;;;5020762;28;20153;-62
2021/09/14 13:46:58;;;;;;;7.18;2.40;;;;;;;;;;5017975;28;20081;-62
2021/09/14 13:49:25;;;;;;;5.78;2.00;;;;;;;;;;5023049;28;20073;-63
2021/09/14 13:51:52;;;;;;;6.68;2.03;;;;;;;;;;5026470;28;20128;-62
2021/09/14 13:54:18;;;;;;;9.88;2.30;;;;;;;;;;5025562;28;20132;-62
2021/09/14 13:56:45;;;;;;;5.93;1.85;;;;;;;;;;5022225;28;20106;-62
2021/09/14 13:59:11;;;;;;;7.63;2.13;;;;;;;;;;5018793;28;20148;-62
2021/09/14 14:01:38;;;;;;;5.85;2.15;;;;;;;;;;5021204;28;20088;-62
2021/09/14 14:04:05;;;;;;;7.60;1.85;;;;;;;;;;5021685;28;20057;-62
2021/09/14 14:06:31;;;;;;;10.23;2.20;;;;;;;;;;5005917;28;20475;-62
2021/09/14 14:08:58;;;;;;;6.77;2.07;;;;;;;;;;5015352;28;20878;-62
2021/09/14 14:11:24;;;;;;;7.38;2.50;;;;;;;;;;5021891;28;20391;-62
2021/09/14 14:13:51;;;;;;;7.45;2.40;;;;;;;;;;5025481;28;20505;-62
2021/09/14 14:16:18;;;;;;;10.25;2.40;;;;;;;;;;5020447;28;20073;-62
2021/09/14 14:18:45;;;;;;;5.25;2.28;;;;;;;;;;5021410;28;20137;-62
2021/09/14 14:21:11;;;;;;;13.40;2.67;;;;;;;;;;5022359;28;20858;-62
2021/09/14 14:23:38;;;;;;;3.60;1.90;;;;;;;;;;5018593;28;20499;-62
2021/09/14 14:26:04;;;;;;;6.72;2.33;;;;;;;;;;5025214;28;20141;-62
2021/09/14 14:28:31;;;;;;;6.22;2.20;;;;;;;;;;5021428;28;20653;-62
2021/09/14 14:30:58;;;;;;;10.82;2.42;;;;;;;;;;5022904;28;20136;-62
2021/09/14 14:33:27;;;;;;;9.20;2.67;;;;;;;;;;5024445;28;20080;-62
2021/09/14 14:35:54;;;;;;;4.90;2.47;;;;;;;;;;5026874;28;20046;-62
2021/09/14 14:38:20;;;;;;;8.63;2.67;;;;;;;;;;5016004;28;20419;-62
2021/09/14 14:40:47;;;;;;;6.85;2.05;;;;;;;;;;5024848;28;20084;-62
2021/09/14 14:43:13;;;;;;;6.57;2.22;;;;;;;;;;5020862;28;20722;-62
2021/09/14 14:45:40;;;;;;;15.18;2.40;;;;;;;;;;5006719;28;20471;-62
2021/09/14 14:48:08;;;;;;;5.75;2.03;;;;;;;;;;5017371;28;20201;-62
2021/09/14 14:50:35;;;;;;;5.47;2.42;;;;;;;;;;5023309;28;20053;-62
2021/09/14 14:53:02;;;;;;;9.15;2.90;;;;;;;;;;5022573;28;20084;-62
2021/09/14 14:55:30;;;;;;;8.13;2.70;;;;;;;;;;5020222;28;20053;-62
2021/09/14 14:57:56;;;;;;;13.15;2.42;;;;;;;;;;5023792;28;20049;-62
2021/09/14 15:00:23;;;;;;;9.10;2.85;;;;;;;;;;5026335;28;20060;-62
2021/09/14 15:02:49;;;;;;;8.57;2.60;;;;;;;;;;5026665;28;20053;-62
2021/09/14 15:05:16;;;;;;;7.03;2.20;;;;;;;;;;5026106;28;20076;-62
2021/09/14 15:07:43;;;;;;;4.60;2.28;;;;;;;;;;5021575;28;20135;-62
2021/09/14 15:10:09;;;;;;;7.60;2.47;;;;;;;;;;5028810;28;20072;-62
2021/09/14 15:12:36;;;;;;;9.03;2.67;;;;;;;;;;5019648;28;20628;-62
2021/09/14 15:15:04;;;;;;;7.65;2.15;;;;;;;;;;5026217;28;20061;-62
2021/09/14 15:17:33;;;;;;;9.68;2.47;;;;;;;;;;5027440;28;20076;-62
2021/09/14 15:19:59;;;;;;;11.45;2.55;;;;;;;;;;5022842;28;20068;-62
2021/09/14 15:22:26;;;;;;;6.82;2.15;;;;;;;;;;5028319;28;20497;-62
2021/09/14 15:24:54;;;;;;;8.82;2.35;;;;;;;;;;5027143;28;20060;-62
2021/09/14 15:27:21;;;;;;;7.35;2.25;;;;;;;;;;5030119;28;20099;-62
2021/09/14 15:29:49;;;;;;;7.95;2.05;;;;;;;;;;5031671;28;20511;-62
2021/09/14 15:32:15;;;;;;;6.72;2.13;;;;;;;;;;5023423;28;20064;-62
2021/09/14 15:34:41;;;;;;;4.97;2.38;;;;;;;;;;5020018;28;20042;-62
2021/09/14 15:37:10;;;;;;;8.68;2.20;;;;;;;;;;5023974;28;20128;-62
2021/09/14 15:39:36;;;;;;;8.02;2.22;;;;;;;;;;5027240;28;20476;-62
2021/09/14 15:42:02;;;;;;;4.88;2.17;;;;;;;;;;5035491;28;20136;-62
2021/09/14 15:44:29;;;;;;;7.73;2.00;;;;;;;;;;5018636;28;20136;-62
2021/09/14 15:46:55;;;;;;;4.05;1.75;;;;;;;;;;5019417;28;20132;-62